Time;durP1;ratioP1;P1;durP2;ratioP2;P2;SDS_P1;SDS_P2;PMS_P1;PMS_P2;Temp;Humidity;BMP_temperature;BMP_pressure;BME280_temperature;BME280_humidity;BME280_pressure;Samples;Min_cycle;Max_cycle;Signal;HPM_P1;HPM_P2
2022/01/26 00:06:41;;;;;;;;;;;3.70;99.90;;;;;;5155598;27;19983;-68
2022/01/26 00:09:08;;;;;;;;;;;3.60;99.90;;;;;;5157385;27;20298;-66
2022/01/26 00:11:37;;;;;;;;;;;3.60;99.90;;;;;;5139878;27;20014;-67
2022/01/26 00:14:09;;;;;;;;;;;3.60;99.90;;;;;;5156758;27;19934;-67
2022/01/26 00:16:42;;;;;;;;;;;3.60;99.90;;;;;;5140350;27;19926;-67
2022/01/26 00:19:17;;;;;;;;;;;3.60;99.90;;;;;;5156279;27;19923;-67
2022/01/26 00:21:52;;;;;;;;;;;3.60;99.90;;;;;;5157084;27;19937;-67
2022/01/26 00:27:20;;;;;;;;;;;3.60;99.90;;;;;;5137210;27;19927;-66
2022/01/26 00:29:58;;;;;;;;;;;3.50;99.90;;;;;;5155899;27;20017;-68
2022/01/26 00:40:40;;;;;;;;;;;3.50;99.90;;;;;;5159329;27;20399;-66
2022/01/26 00:43:14;;;;;;;;;;;3.50;99.90;;;;;;5176325;27;19931;-67
2022/01/26 00:45:40;;;;;;;;;;;3.50;99.90;;;;;;5156214;27;19934;-65
2022/01/26 00:48:08;;;;;;;;;;;3.60;99.90;;;;;;5157799;27;19930;-66
2022/01/26 00:50:34;;;;;;;;;;;3.70;99.90;;;;;;5142667;27;19955;-66
2022/01/26 00:53:00;;;;;;;;;;;3.50;99.90;;;;;;5140209;27;19923;-67
2022/01/26 00:55:26;;;;;;;;;;;3.60;99.90;;;;;;5156585;27;19937;-66
2022/01/26 00:57:52;;;;;;;;;;;3.50;99.90;;;;;;5175381;27;19929;-67
2022/01/26 01:00:22;;;;;;;;;;;3.50;99.90;;;;;;5145019;27;20354;-66
2022/01/26 01:02:49;;;;;;;;;;;3.50;99.90;;;;;;5153745;27;20032;-67
2022/01/26 01:05:24;;;;;;;;;;;3.50;99.90;;;;;;5159401;27;19922;-67
2022/01/26 01:07:53;;;;;;;;;;;3.50;99.90;;;;;;5175051;27;19977;-66
2022/01/26 01:10:21;;;;;;;;;;;3.50;99.90;;;;;;5167141;27;19923;-66
2022/01/26 01:12:50;;;;;;;;;;;3.40;99.90;;;;;;5153540;27;19923;-67
2022/01/26 01:15:16;;;;;;;;;;;3.20;99.90;;;;;;5120340;27;20288;-68
2022/01/26 01:17:47;;;;;;;;;;;3.40;99.90;;;;;;5135901;27;19952;-68
2022/01/26 01:22:53;;;;;;;;;;;3.40;99.90;;;;;;5174591;27;19930;-65
2022/01/26 01:28:12;;;;;;;;;;;3.40;99.90;;;;;;5155408;27;20013;-66
2022/01/26 01:30:48;;;;;;;;;;;3.40;99.90;;;;;;5119831;27;20256;-72
2022/01/26 01:33:19;;;;;;;;;;;3.10;99.90;;;;;;5156565;27;19974;-67
2022/01/26 01:35:47;;;;;;;;;;;3.40;99.90;;;;;;5133666;27;19923;-67
2022/01/26 01:38:15;;;;;;;;;;;3.30;99.90;;;;;;5135983;27;19952;-67
2022/01/26 01:40:42;;;;;;;;;;;3.30;99.90;;;;;;5117291;27;19923;-67
2022/01/26 01:43:08;;;;;;;;;;;3.30;99.90;;;;;;5154923;27;19927;-66
2022/01/26 01:45:35;;;;;;;;;;;3.30;99.90;;;;;;5138062;27;20309;-67
2022/01/26 01:48:00;;;;;;;;;;;3.60;99.90;;;;;;5155587;27;20446;-67
2022/01/26 01:50:26;;;;;;;;;;;3.30;99.90;;;;;;5156052;27;19927;-67
2022/01/26 01:52:59;;;;;;;;;;;3.30;99.90;;;;;;5171494;27;19926;-68
2022/01/26 01:55:27;;;;;;;;;;;3.30;99.90;;;;;;5149842;27;19923;-68
2022/01/26 01:57:53;;;;;;;;;;;3.20;99.90;;;;;;5153368;27;20000;-67
2022/01/26 02:00:19;;;;;;;;;;;3.30;99.90;;;;;;5152442;27;19923;-67
2022/01/26 02:02:44;;;;;;;;;;;3.20;99.90;;;;;;5160664;27;19923;-67
2022/01/26 02:05:10;;;;;;;;;;;3.30;99.90;;;;;;5153822;27;19923;-66
2022/01/26 02:07:36;;;;;;;;;;;3.30;99.90;;;;;;5174433;27;20021;-66
2022/01/26 02:10:03;;;;;;;;;;;3.20;99.90;;;;;;5155143;27;20210;-66
2022/01/26 02:12:30;;;;;;;;;;;3.30;99.90;;;;;;5154438;27;19933;-66
2022/01/26 02:15:05;;;;;;;;;;;3.30;99.90;;;;;;5149100;27;19991;-67
2022/01/26 02:55:47;;;;;;;;;;;3.30;99.90;;;;;;5152828;27;19968;-65
2022/01/26 03:01:42;;;;;;;;;;;3.50;99.90;;;;;;5107069;28;20031;-67
2022/01/26 03:06:54;;;;;;;;;;;3.30;99.90;;;;;;5116787;27;19930;-66
2022/01/26 03:09:26;;;;;;;;;;;3.40;99.90;;;;;;5173418;27;20018;-67
2022/01/26 03:11:52;;;;;;;;;;;3.20;99.90;;;;;;5148674;27;20335;-71
2022/01/26 03:14:31;;;;;;;;;;;3.20;99.90;;;;;;5152423;27;19923;-67
2022/01/26 03:17:04;;;;;;;;;;;3.30;99.90;;;;;;5164952;27;19923;-66
2022/01/26 03:30:05;;;;;;;;;;;3.20;99.90;;;;;;5134020;27;20031;-68
2022/01/26 03:32:59;;;;;;;;;;;3.20;99.90;;;;;;5135282;27;19970;-67
2022/01/26 03:35:40;;;;;;;;;;;3.20;99.90;;;;;;5153216;27;19935;-67
2022/01/26 03:38:06;;;;;;;;;;;3.20;99.90;;;;;;5137336;27;19923;-67
2022/01/26 03:40:35;;;;;;;;;;;3.20;99.90;;;;;;5138689;27;19923;-68
2022/01/26 03:43:01;;;;;;;;;;;3.30;99.90;;;;;;5139586;27;20739;-66
2022/01/26 03:45:27;;;;;;;;;;;3.20;99.90;;;;;;5136020;27;20062;-67
2022/01/26 03:47:54;;;;;;;;;;;3.20;99.90;;;;;;5156016;27;19923;-66
2022/01/26 03:50:21;;;;;;;;;;;3.20;99.90;;;;;;5120141;27;19952;-68
2022/01/26 03:52:46;;;;;;;;;;;3.20;99.90;;;;;;5157398;27;20010;-67
2022/01/26 03:55:12;;;;;;;;;;;3.20;99.90;;;;;;5136505;27;20093;-66
2022/01/26 03:57:37;;;;;;;;;;;3.20;99.90;;;;;;5137888;27;19967;-67
2022/01/26 04:00:04;;;;;;;;;;;3.20;99.90;;;;;;5154002;27;19930;-67
2022/01/26 04:02:29;;;;;;;;;;;3.20;99.90;;;;;;5120352;27;20279;-67
2022/01/26 04:05:00;;;;;;;;;;;3.20;99.90;;;;;;5112197;27;19927;-68
2022/01/26 04:07:25;;;;;;;;;;;3.20;99.90;;;;;;5171025;27;19926;-66
2022/01/26 04:09:51;;;;;;;;;;;3.20;99.90;;;;;;5157979;27;19950;-68
2022/01/26 04:12:17;;;;;;;;;;;3.30;99.90;;;;;;5157217;27;20012;-67
2022/01/26 04:14:48;;;;;;;;;;;3.20;99.90;;;;;;5169642;27;19923;-67
2022/01/26 04:17:13;;;;;;;;;;;3.30;99.90;;;;;;5163088;27;19923;-67
2022/01/26 04:19:40;;;;;;;;;;;3.20;99.90;;;;;;5157741;27;19923;-65
2022/01/26 04:24:46;;;;;;;;;;;3.20;99.90;;;;;;5174784;27;19922;-69
2022/01/26 04:29:47;;;;;;;;;;;3.50;99.90;;;;;;5136995;27;19938;-70
2022/01/26 04:32:15;;;;;;;;;;;3.20;99.90;;;;;;5136153;27;20053;-66
2022/01/26 04:34:41;;;;;;;;;;;3.20;99.90;;;;;;5155491;27;20018;-67
2022/01/26 04:39:57;;;;;;;;;;;3.20;99.90;;;;;;5151453;27;19923;-67
2022/01/26 04:42:52;;;;;;;;;;;3.20;99.90;;;;;;5154783;27;20729;-68
2022/01/26 04:45:10;;;;;;;;;;;3.20;99.90;;;;;;5135393;27;20037;-66
2022/01/26 04:47:37;;;;;;;;;;;3.30;99.90;;;;;;5136970;27;19934;-66
2022/01/26 04:50:03;;;;;;;;;;;3.10;99.90;;;;;;5139323;27;20302;-71
2022/01/26 04:52:29;;;;;;;;;;;3.10;99.90;;;;;;5133803;27;19923;-67
2022/01/26 04:54:54;;;;;;;;;;;3.10;99.90;;;;;;5136696;27;19941;-67
2022/01/26 04:57:20;;;;;;;;;;;3.10;99.90;;;;;;5119965;27;19923;-67
2022/01/26 04:59:45;;;;;;;;;;;3.10;99.90;;;;;;5150401;27;19974;-68
2022/01/26 05:02:11;;;;;;;;;;;3.10;99.90;;;;;;5174964;27;20602;-66
2022/01/26 05:04:37;;;;;;;;;;;3.10;99.90;;;;;;5119968;27;20009;-66
2022/01/26 05:07:02;;;;;;;;;;;3.10;99.90;;;;;;5154591;27;20333;-67
2022/01/26 05:09:28;;;;;;;;;;;3.10;99.90;;;;;;5156419;27;19946;-66
2022/01/26 05:11:55;;;;;;;;;;;3.00;99.90;;;;;;5135575;27;19923;-66
2022/01/26 05:14:21;;;;;;;;;;;3.00;99.90;;;;;;5135144;27;20340;-66
2022/01/26 05:16:47;;;;;;;;;;;3.20;99.90;;;;;;5156518;27;19933;-66
2022/01/26 05:19:12;;;;;;;;;;;3.00;99.90;;;;;;5142896;27;19950;-67
2022/01/26 05:21:38;;;;;;;;;;;3.10;99.90;;;;;;5136100;27;20039;-66
2022/01/26 05:24:04;;;;;;;;;;;3.10;99.90;;;;;;5118873;27;20364;-68
2022/01/26 05:26:29;;;;;;;;;;;3.00;99.90;;;;;;5152568;27;19927;-66
2022/01/26 05:28:55;;;;;;;;;;;3.10;99.90;;;;;;5144937;27;20333;-68
2022/01/26 05:31:21;;;;;;;;;;;3.10;99.90;;;;;;5168297;27;19922;-68
2022/01/26 05:33:46;;;;;;;;;;;3.00;99.90;;;;;;5175275;27;19934;-68
2022/01/26 05:36:12;;;;;;;;;;;3.00;99.90;;;;;;5138437;27;19922;-68
2022/01/26 05:38:38;;;;;;;;;;;3.00;99.90;;;;;;5156381;27;19930;-69
2022/01/26 05:41:04;;;;;;;;;;;3.20;99.90;;;;;;5147472;27;19929;-65
2022/01/26 05:43:31;;;;;;;;;;;3.00;99.90;;;;;;5145594;27;19919;-66
2022/01/26 05:46:01;;;;;;;;;;;3.00;99.90;;;;;;5135928;27;20026;-66
2022/01/26 05:48:27;;;;;;;;;;;3.00;99.90;;;;;;5117929;27;19929;-66
2022/01/26 05:50:56;;;;;;;;;;;2.90;99.90;;;;;;5137260;27;19931;-67
2022/01/26 05:53:21;;;;;;;;;;;3.00;99.90;;;;;;5142798;27;19930;-67
2022/01/26 05:55:50;;;;;;;;;;;2.90;99.90;;;;;;5135639;27;19923;-66
2022/01/26 05:58:16;;;;;;;;;;;3.00;99.90;;;;;;5152641;27;20380;-67
2022/01/26 06:00:41;;;;;;;;;;;2.90;99.90;;;;;;5135803;27;19930;-67
2022/01/26 06:03:07;;;;;;;;;;;2.90;99.90;;;;;;5135844;27;20409;-67
2022/01/26 06:05:33;;;;;;;;;;;2.90;99.90;;;;;;5162343;27;19919;-67
2022/01/26 06:07:58;;;;;;;;;;;2.90;99.90;;;;;;5156193;27;19926;-66
2022/01/26 06:10:24;;;;;;;;;;;3.00;99.90;;;;;;5154435;27;19934;-69
2022/01/26 06:12:49;;;;;;;;;;;2.90;99.90;;;;;;5142973;27;19945;-67
2022/01/26 06:15:15;;;;;;;;;;;2.90;99.90;;;;;;5155508;27;19923;-70
2022/01/26 06:17:41;;;;;;;;;;;2.90;99.90;;;;;;5152122;27;19979;-68
2022/01/26 06:20:07;;;;;;;;;;;2.90;99.90;;;;;;5117151;27;20026;-67
2022/01/26 06:22:33;;;;;;;;;;;2.90;99.90;;;;;;5146505;27;19927;-66
2022/01/26 06:25:04;;;;;;;;;;;3.00;99.90;;;;;;5153391;27;19923;-66
2022/01/26 06:27:30;;;;;;;;;;;2.90;99.90;;;;;;5153319;27;19981;-68
2022/01/26 06:29:55;;;;;;;;;;;2.90;99.90;;;;;;5134537;27;19970;-68
2022/01/26 06:32:21;;;;;;;;;;;2.90;99.90;;;;;;5137656;27;20320;-67
2022/01/26 06:34:47;;;;;;;;;;;2.90;99.90;;;;;;5134531;27;19923;-66
2022/01/26 06:37:14;;;;;;;;;;;2.90;99.90;;;;;;5134169;27;19923;-66
2022/01/26 06:39:40;;;;;;;;;;;2.90;99.90;;;;;;5152452;27;19927;-67
2022/01/26 06:42:12;;;;;;;;;;;2.90;99.90;;;;;;5136270;27;19978;-68
2022/01/26 06:44:48;;;;;;;;;;;2.90;99.90;;;;;;5133885;27;19923;-67
2022/01/26 06:47:30;;;;;;;;;;;2.90;99.90;;;;;;5119122;27;20407;-66
2022/01/26 06:49:56;;;;;;;;;;;2.90;99.90;;;;;;5134283;27;20034;-67
2022/01/26 06:52:22;;;;;;;;;;;2.90;99.90;;;;;;5117954;27;19965;-69
2022/01/26 06:54:48;;;;;;;;;;;2.90;99.90;;;;;;5153295;27;19930;-67
2022/01/26 06:57:18;;;;;;;;;;;3.00;99.90;;;;;;5117887;27;19991;-68
2022/01/26 06:59:45;;;;;;;;;;;2.90;99.90;;;;;;5118085;27;19930;-67
2022/01/26 07:02:11;;;;;;;;;;;2.90;99.90;;;;;;5133929;27;20280;-67
2022/01/26 07:04:36;;;;;;;;;;;2.90;99.90;;;;;;5132839;27;19930;-67
2022/01/26 07:07:02;;;;;;;;;;;3.00;99.90;;;;;;5134236;27;19934;-67
2022/01/26 07:09:28;;;;;;;;;;;2.90;99.90;;;;;;5135669;27;20018;-66
2022/01/26 07:11:53;;;;;;;;;;;3.00;99.90;;;;;;5112509;27;20026;-67
2022/01/26 07:19:53;;;;;;;;;;;2.90;99.90;;;;;;5139096;27;19923;-66
2022/01/26 07:22:19;;;;;;;;;;;2.90;99.90;;;;;;5113658;28;19923;-66
2022/01/26 07:24:45;;;;;;;;;;;3.00;99.90;;;;;;5117737;28;19923;-67
2022/01/26 07:27:11;;;;;;;;;;;3.00;99.90;;;;;;5131804;27;19947;-69
2022/01/26 07:29:36;;;;;;;;;;;3.00;99.90;;;;;;5135261;27;19927;-67
2022/01/26 07:32:05;;;;;;;;;;;2.90;99.90;;;;;;5152174;27;19923;-66
2022/01/26 07:34:31;;;;;;;;;;;3.00;99.90;;;;;;5136858;27;20249;-67
2022/01/26 07:37:02;;;;;;;;;;;3.00;99.90;;;;;;5131398;27;19931;-67
2022/01/26 07:39:49;;;;;;;;;;;3.00;99.90;;;;;;5131405;27;19967;-65
2022/01/26 07:42:14;;;;;;;;;;;3.00;99.90;;;;;;5131067;28;20371;-66
2022/01/26 07:44:40;;;;;;;;;;;3.00;99.90;;;;;;5130928;27;19982;-65
2022/01/26 07:47:06;;;;;;;;;;;3.00;99.90;;;;;;5133264;27;19962;-66
2022/01/26 07:49:32;;;;;;;;;;;3.00;99.90;;;;;;5129085;27;20362;-66
2022/01/26 07:51:57;;;;;;;;;;;3.10;99.90;;;;;;5117221;28;19946;-67
2022/01/26 07:54:24;;;;;;;;;;;3.10;99.90;;;;;;5134225;27;20288;-67
2022/01/26 07:56:50;;;;;;;;;;;3.00;99.90;;;;;;5139592;27;19923;-70
2022/01/26 07:59:15;;;;;;;;;;;3.20;99.90;;;;;;5131644;27;19927;-67
2022/01/26 08:01:41;;;;;;;;;;;3.10;99.90;;;;;;5130427;27;20367;-69
2022/01/26 08:04:07;;;;;;;;;;;3.10;99.90;;;;;;5149414;27;19927;-70
2022/01/26 08:06:32;;;;;;;;;;;3.10;99.90;;;;;;5147852;27;19923;-68
2022/01/26 08:08:58;;;;;;;;;;;3.10;99.90;;;;;;5120534;28;19975;-67
2022/01/26 08:11:24;;;;;;;;;;;3.10;99.90;;;;;;5132091;27;19923;-67
2022/01/26 08:13:51;;;;;;;;;;;3.10;99.90;;;;;;5142993;27;19930;-68
2022/01/26 08:16:16;;;;;;;;;;;3.10;99.90;;;;;;5136145;27;19927;-68
2022/01/26 08:18:42;;;;;;;;;;;3.30;99.90;;;;;;5118544;28;20296;-69
2022/01/26 08:21:07;;;;;;;;;;;3.20;99.90;;;;;;5123321;27;19984;-66
2022/01/26 08:23:35;;;;;;;;;;;3.20;99.90;;;;;;5122769;27;19938;-66
2022/01/26 08:26:01;;;;;;;;;;;3.20;99.90;;;;;;5137055;27;19924;-67
2022/01/26 08:28:33;;;;;;;;;;;3.20;99.90;;;;;;5134975;27;19927;-66
2022/01/26 08:30:59;;;;;;;;;;;3.20;99.90;;;;;;5135363;27;20356;-67
2022/01/26 08:33:24;;;;;;;;;;;3.20;99.90;;;;;;5145105;27;19930;-67
2022/01/26 08:35:50;;;;;;;;;;;3.30;99.90;;;;;;5136698;27;20481;-66
2022/01/26 08:38:16;;;;;;;;;;;3.30;99.90;;;;;;5134843;27;19927;-67
2022/01/26 08:40:43;;;;;;;;;;;3.30;99.90;;;;;;5142246;27;19922;-67
2022/01/26 08:43:09;;;;;;;;;;;3.20;99.90;;;;;;5138589;27;20364;-68
2022/01/26 08:45:35;;;;;;;;;;;3.30;99.90;;;;;;5129616;27;19975;-73
2022/01/26 08:50:50;;;;;;;;;;;3.10;99.90;;;;;;5068568;27;2003743;-68
2022/01/26 08:53:15;;;;;;;;;;;3.30;99.90;;;;;;5117159;28;19944;-68
2022/01/26 08:55:41;;;;;;;;;;;3.40;99.90;;;;;;5116051;28;19924;-69
2022/01/26 08:58:08;;;;;;;;;;;3.40;99.90;;;;;;5093398;28;19974;-70
2022/01/26 09:00:37;;;;;;;;;;;3.30;99.90;;;;;;5087514;28;19923;-68
2022/01/26 09:03:03;;;;;;;;;;;3.40;99.90;;;;;;5108224;28;19928;-64
2022/01/26 09:05:29;;;;;;;;;;;3.40;99.90;;;;;;5099748;28;20392;-64
2022/01/26 09:07:57;;;;;;;;;;;3.40;99.90;;;;;;5052967;28;19971;-64
2022/01/26 09:10:26;;;;;;;;;;;3.40;99.90;;;;;;5087757;28;19924;-64
2022/01/26 09:12:52;;;;;;;;;;;3.70;99.90;;;;;;5070621;28;19928;-64
2022/01/26 09:15:17;;;;;;;;;;;3.40;99.90;;;;;;5081702;28;20285;-63
2022/01/26 09:17:43;;;;;;;;;;;3.40;99.90;;;;;;5105746;28;19924;-63
2022/01/26 09:20:10;;;;;;;;;;;3.40;99.90;;;;;;5117030;28;19935;-64
2022/01/26 09:22:35;;;;;;;;;;;3.40;99.90;;;;;;5129063;28;19924;-64
2022/01/26 09:25:01;;;;;;;;;;;3.40;99.90;;;;;;5103474;28;19981;-64
2022/01/26 09:27:27;;;;;;;;;;;3.50;99.90;;;;;;5094624;28;19931;-64
2022/01/26 09:29:53;;;;;;;;;;;3.50;99.90;;;;;;5065611;28;19972;-66
2022/01/26 09:32:19;;;;;;;;;;;3.50;99.90;;;;;;5086358;28;20003;-65
2022/01/26 09:34:44;;;;;;;;;;;3.50;99.90;;;;;;5089279;28;20003;-64
2022/01/26 09:37:12;;;;;;;;;;;3.50;99.90;;;;;;5081669;28;19935;-70
2022/01/26 09:39:38;;;;;;;;;;;3.60;99.90;;;;;;5086141;28;19924;-70
2022/01/26 09:42:04;;;;;;;;;;;3.70;99.90;;;;;;5054852;28;19932;-66
2022/01/26 09:44:31;;;;;;;;;;;3.80;99.90;;;;;;5077887;28;19978;-68
2022/01/26 09:46:56;;;;;;;;;;;3.80;99.90;;;;;;5097562;28;19931;-69
2022/01/26 09:49:29;;;;;;;;;;;3.80;99.90;;;;;;5097986;28;19932;-67
2022/01/26 09:51:55;;;;;;;;;;;3.80;99.90;;;;;;5081031;28;19928;-67
2022/01/26 09:54:20;;;;;;;;;;;3.80;99.90;;;;;;5080781;28;20087;-71
2022/01/26 09:56:47;;;;;;;;;;;3.80;99.90;;;;;;5087333;28;20436;-70
2022/01/26 09:59:14;;;;;;;;;;;3.80;99.90;;;;;;5067241;28;19931;-66
2022/01/26 10:01:45;;;;;;;;;;;3.80;99.90;;;;;;5067454;28;20007;-69
2022/01/26 10:04:23;;;;;;;;;;;3.80;99.90;;;;;;5086227;28;20023;-71
2022/01/26 10:07:14;;;;;;;;;;;3.90;99.90;;;;;;5087028;28;19927;-68
2022/01/26 10:09:59;;;;;;;;;;;3.90;99.90;;;;;;5110069;28;19927;-67
2022/01/26 10:15:28;;;;;;;;;;;3.90;99.90;;;;;;5089405;28;19981;-67
2022/01/26 10:18:01;;;;;;;;;;;3.90;99.90;;;;;;5083381;28;19981;-67
2022/01/26 10:20:27;;;;;;;;;;;3.90;99.90;;;;;;5092205;28;20394;-71
2022/01/26 10:22:53;;;;;;;;;;;4.00;99.90;;;;;;5092950;28;20026;-68
2022/01/26 10:25:19;;;;;;;;;;;4.00;99.90;;;;;;5092153;28;19939;-67
2022/01/26 10:27:49;;;;;;;;;;;4.00;99.90;;;;;;5086223;28;20007;-72
2022/01/26 10:30:17;;;;;;;;;;;4.00;99.90;;;;;;5095302;28;19974;-67
2022/01/26 10:32:45;;;;;;;;;;;4.00;99.90;;;;;;5084748;28;20401;-68
2022/01/26 10:35:11;;;;;;;;;;;4.00;99.90;;;;;;5094778;28;19928;-68
2022/01/26 10:37:39;;;;;;;;;;;4.00;99.90;;;;;;5052228;28;19971;-68
2022/01/26 10:40:10;;;;;;;;;;;4.00;99.90;;;;;;5100825;28;20291;-70
2022/01/26 10:42:36;;;;;;;;;;;4.10;99.90;;;;;;5068310;28;20393;-67
2022/01/26 10:45:23;;;;;;;;;;;4.00;99.90;;;;;;5082335;28;19931;-70
2022/01/26 10:47:48;;;;;;;;;;;4.10;99.90;;;;;;5062935;28;19978;-73
2022/01/26 10:50:45;;;;;;;;;;;4.10;99.90;;;;;;5075472;28;19932;-69
2022/01/26 10:53:12;;;;;;;;;;;4.10;99.90;;;;;;5053054;28;19924;-68
2022/01/26 10:55:38;;;;;;;;;;;4.10;99.90;;;;;;5060560;28;19931;-71
2022/01/26 10:58:05;;;;;;;;;;;4.10;99.90;;;;;;5067070;28;20309;-71
2022/01/26 11:00:34;;;;;;;;;;;4.20;99.90;;;;;;5064495;28;19928;-68
2022/01/26 11:03:00;;;;;;;;;;;4.10;99.90;;;;;;5075443;28;20702;-73
2022/01/26 11:05:26;;;;;;;;;;;4.20;99.90;;;;;;5067144;28;19928;-70
2022/01/26 11:07:51;;;;;;;;;;;4.10;99.90;;;;;;5068778;28;20014;-75
2022/01/26 11:10:18;;;;;;;;;;;4.10;99.90;;;;;;5104737;28;20282;-68
2022/01/26 11:12:43;;;;;;;;;;;4.10;99.90;;;;;;5085997;28;20022;-68
2022/01/26 11:15:10;;;;;;;;;;;4.10;99.90;;;;;;5084638;28;20011;-70
2022/01/26 11:17:37;;;;;;;;;;;4.10;99.90;;;;;;5067643;28;19924;-70
2022/01/26 11:20:19;;;;;;;;;;;4.10;99.90;;;;;;5097421;28;19934;-71
2022/01/26 11:22:49;;;;;;;;;;;4.10;99.90;;;;;;5078430;28;19924;-71
2022/01/26 11:25:15;;;;;;;;;;;4.10;99.90;;;;;;5058661;28;20274;-70
2022/01/26 11:27:41;;;;;;;;;;;4.10;99.90;;;;;;5058357;28;19973;-70
2022/01/26 11:30:39;;;;;;;;;;;4.10;99.90;;;;;;5064126;28;19974;-71
2022/01/26 11:33:12;;;;;;;;;;;4.10;99.90;;;;;;5052717;28;20300;-69
2022/01/26 11:35:39;;;;;;;;;;;4.10;99.90;;;;;;5072243;28;19976;-68
2022/01/26 11:38:11;;;;;;;;;;;4.20;99.90;;;;;;5061877;28;19928;-70
2022/01/26 11:46:23;;;;;;;;;;;4.40;99.90;;;;;;5051433;28;19939;-71
2022/01/26 11:49:00;;;;;;;;;;;4.50;99.90;;;;;;5064539;28;19933;-69
2022/01/26 11:51:36;;;;;;;;;;;4.40;99.90;;;;;;5056724;28;19975;-68
2022/01/26 11:54:12;;;;;;;;;;;4.40;99.90;;;;;;5065686;28;19932;-70
2022/01/26 11:56:38;;;;;;;;;;;4.40;99.90;;;;;;5068314;28;19928;-69
2022/01/26 11:59:03;;;;;;;;;;;4.40;99.90;;;;;;5049194;28;19936;-70
2022/01/26 12:01:38;;;;;;;;;;;4.40;99.90;;;;;;5064699;28;19928;-70
2022/01/26 12:04:09;;;;;;;;;;;4.30;99.90;;;;;;5065645;28;20002;-70
2022/01/26 12:06:39;;;;;;;;;;;4.40;99.90;;;;;;5041786;28;19924;-71
2022/01/26 12:09:06;;;;;;;;;;;4.40;99.90;;;;;;5061696;28;20019;-69
2022/01/26 12:11:33;;;;;;;;;;;4.40;99.90;;;;;;5031519;28;19932;-70
2022/01/26 12:13:59;;;;;;;;;;;4.40;99.90;;;;;;5052002;28;19928;-72
2022/01/26 12:16:32;;;;;;;;;;;4.30;99.90;;;;;;5048267;28;19925;-70
2022/01/26 12:19:11;;;;;;;;;;;4.40;99.90;;;;;;5057183;28;19929;-74
2022/01/26 12:38:03;;;;;;;;;;;4.50;99.90;;;;;;5070854;28;20465;-74
2022/01/26 12:43:15;;;;;;;;;;;4.40;99.90;;;;;;5065124;28;19967;-71
2022/01/26 12:45:41;;;;;;;;;;;4.50;99.90;;;;;;5058768;28;19975;-70
2022/01/26 12:48:08;;;;;;;;;;;4.50;99.90;;;;;;5057769;28;19951;-71
2022/01/26 12:50:34;;;;;;;;;;;4.50;99.90;;;;;;5046957;28;19929;-71
2022/01/26 12:52:59;;;;;;;;;;;4.50;99.90;;;;;;5055596;28;19928;-75
2022/01/26 12:55:26;;;;;;;;;;;4.50;99.90;;;;;;5052889;28;19932;-70
2022/01/26 12:57:52;;;;;;;;;;;4.40;99.90;;;;;;5053251;28;19974;-70
2022/01/26 13:00:18;;;;;;;;;;;4.50;99.90;;;;;;5061556;28;19980;-70
2022/01/26 13:02:44;;;;;;;;;;;4.50;99.90;;;;;;5049913;28;19925;-71
2022/01/26 13:05:10;;;;;;;;;;;4.50;99.90;;;;;;5049459;28;19936;-71
2022/01/26 13:07:36;;;;;;;;;;;4.50;99.90;;;;;;5033251;28;19928;-70
2022/01/26 13:10:12;;;;;;;;;;;4.50;99.90;;;;;;5052879;28;20028;-72
2022/01/26 13:12:37;;;;;;;;;;;4.50;99.90;;;;;;5059895;28;19936;-71
2022/01/26 13:15:17;;;;;;;;;;;4.60;99.90;;;;;;5061178;28;19928;-72
2022/01/26 13:17:59;;;;;;;;;;;4.60;99.90;;;;;;5049648;28;19929;-70
2022/01/26 13:20:54;;;;;;;;;;;4.70;99.90;;;;;;5049681;28;19925;-70
2022/01/26 13:23:42;;;;;;;;;;;4.70;99.90;;;;;;5032252;28;20353;-71
2022/01/26 13:26:20;;;;;;;;;;;4.70;99.90;;;;;;5049253;28;19952;-71
2022/01/26 13:29:07;;;;;;;;;;;4.80;99.90;;;;;;5062250;28;19967;-70
2022/01/26 14:00:06;;;;;;;;;;;4.90;99.90;;;;;;5092082;28;19928;-71
2022/01/26 14:02:33;;;;;;;;;;;5.00;99.90;;;;;;5087024;28;20005;-71
2022/01/26 14:04:59;;;;;;;;;;;5.00;99.90;;;;;;5071908;28;19929;-71
2022/01/26 14:07:25;;;;;;;;;;;5.00;99.90;;;;;;5060852;28;20686;-71
2022/01/26 14:09:50;;;;;;;;;;;5.00;99.90;;;;;;5078399;28;19928;-68
2022/01/26 14:12:20;;;;;;;;;;;5.00;99.90;;;;;;5082580;28;19935;-69
2022/01/26 14:14:52;;;;;;;;;;;5.10;99.90;;;;;;5059260;28;20019;-71
2022/01/26 14:17:27;;;;;;;;;;;5.10;99.90;;;;;;5060980;28;19951;-69
2022/01/26 14:20:09;;;;;;;;;;;5.10;99.90;;;;;;5066505;28;19928;-73
2022/01/26 14:22:59;;;;;;;;;;;5.10;99.90;;;;;;5061273;28;20416;-72
2022/01/26 14:25:29;;;;;;;;;;;5.10;99.90;;;;;;5060104;28;19931;-72
2022/01/26 14:28:00;;;;;;;;;;;5.20;99.90;;;;;;5056629;28;19924;-72
2022/01/26 14:30:37;;;;;;;;;;;5.20;99.90;;;;;;5057030;28;19924;-73
2022/01/26 14:51:37;;;;;;;;;;;5.30;99.90;;;;;;5053952;28;19925;-75
2022/01/26 15:49:28;;;;;;;;;;;5.40;99.90;;;;;;5055053;28;19974;-73
2022/01/26 15:51:04;;;;;;;;;;;5.40;99.90;;;;;;5039772;28;20006;-71
2022/01/26 16:04:26;;;;;;;;;;;5.40;99.90;;;;;;5068078;28;19983;-73
2022/01/26 16:07:13;;;;;;;;;;;5.40;99.90;;;;;;5084803;28;19954;-73
2022/01/26 17:55:38;;;;;;;;;;;5.70;99.90;;;;;;5089782;28;20407;-68
2022/01/26 18:49:47;;;;;;;;;;;5.80;99.90;;;;;;5039298;28;20343;-68
2022/01/26 18:52:12;;;;;;;;;;;5.80;99.90;;;;;;5074076;28;19925;-68
2022/01/26 18:54:39;;;;;;;;;;;5.90;99.90;;;;;;5092536;28;19939;-75
2022/01/26 18:57:06;;;;;;;;;;;5.80;99.90;;;;;;5053119;28;20306;-68
2022/01/26 18:59:31;;;;;;;;;;;5.80;99.90;;;;;;5055481;28;19924;-69
2022/01/26 19:01:58;;;;;;;;;;;5.80;99.90;;;;;;5088271;28;19924;-70
2022/01/26 19:04:33;;;;;;;;;;;5.80;99.90;;;;;;5082156;28;20047;-71
2022/01/26 19:07:00;;;;;;;;;;;5.80;99.90;;;;;;5087970;28;20323;-69
2022/01/26 19:09:28;;;;;;;;;;;5.90;99.90;;;;;;5078529;28;20113;-70
2022/01/26 19:11:55;;;;;;;;;;;5.90;99.90;;;;;;5072010;28;19982;-72
2022/01/26 19:14:33;;;;;;;;;;;5.90;99.90;;;;;;5071739;28;19931;-72
2022/01/26 19:17:08;;;;;;;;;;;5.90;99.90;;;;;;5042969;28;20375;-69
2022/01/26 19:19:51;;;;;;;;;;;5.90;99.90;;;;;;5053047;28;19931;-74
2022/01/26 19:22:41;;;;;;;;;;;5.90;99.90;;;;;;5067319;28;19928;-71
2022/01/26 19:25:15;;;;;;;;;;;6.00;99.90;;;;;;5068936;28;20015;-72
2022/01/26 19:31:00;;;;;;;;;;;6.00;99.90;;;;;;5066371;28;19928;-73
2022/01/26 19:33:28;;;;;;;;;;;6.00;99.90;;;;;;5070420;28;19924;-71
2022/01/26 19:40:21;;;;;;;;;;;6.00;99.90;;;;;;5076812;28;20084;-67
2022/01/26 19:52:09;;;;;;;;;;;6.00;99.90;;;;;;5068737;28;19967;-65
2022/01/26 19:54:35;;;;;;;;;;;6.00;99.90;;;;;;5053717;28;19927;-66
2022/01/26 19:57:01;;;;;;;;;;;6.00;99.90;;;;;;5094965;28;19934;-65
2022/01/26 19:59:27;;;;;;;;;;;6.00;99.90;;;;;;5093436;28;19932;-68
2022/01/26 20:01:53;;;;;;;;;;;6.00;99.90;;;;;;5056889;28;19995;-65
2022/01/26 20:04:19;;;;;;;;;;;6.00;99.90;;;;;;5087254;28;19928;-66
2022/01/26 20:06:45;;;;;;;;;;;6.10;99.90;;;;;;5087193;28;19928;-66
2022/01/26 20:09:22;;;;;;;;;;;6.00;99.90;;;;;;5049587;28;20121;-65
2022/01/26 20:12:00;;;;;;;;;;;6.00;99.90;;;;;;5070110;28;19929;-66
2022/01/26 20:14:32;;;;;;;;;;;6.00;99.90;;;;;;5073324;28;19951;-66
2022/01/26 20:17:02;;;;;;;;;;;6.20;99.90;;;;;;5079531;28;19931;-68
2022/01/26 20:19:27;;;;;;;;;;;6.10;99.90;;;;;;5088136;28;19928;-66
2022/01/26 20:21:53;;;;;;;;;;;6.10;99.90;;;;;;5032261;28;19955;-69
2022/01/26 20:24:19;;;;;;;;;;;6.10;99.90;;;;;;5082942;28;20381;-66
2022/01/26 20:26:45;;;;;;;;;;;6.10;99.90;;;;;;5065511;28;19978;-65
2022/01/26 20:29:11;;;;;;;;;;;6.10;99.90;;;;;;5066060;28;20019;-66
2022/01/26 20:31:37;;;;;;;;;;;6.10;99.90;;;;;;5090820;28;19928;-68
2022/01/26 20:34:03;;;;;;;;;;;6.10;99.90;;;;;;5085899;28;19928;-65
2022/01/26 20:36:29;;;;;;;;;;;6.10;99.90;;;;;;5092950;28;19934;-66
2022/01/26 20:38:56;;;;;;;;;;;6.10;99.90;;;;;;5062401;28;20343;-71
2022/01/26 20:41:21;;;;;;;;;;;6.10;99.90;;;;;;5051202;28;19932;-64
2022/01/26 20:43:47;;;;;;;;;;;6.10;99.90;;;;;;5067934;28;19935;-69
2022/01/26 20:46:13;;;;;;;;;;;6.10;99.90;;;;;;5052795;28;19935;-68
2022/01/26 20:48:38;;;;;;;;;;;6.20;99.90;;;;;;5071462;28;19928;-66
2022/01/26 20:51:04;;;;;;;;;;;6.20;99.90;;;;;;5068768;28;19932;-66
2022/01/26 20:53:30;;;;;;;;;;;6.20;99.90;;;;;;5085795;28;19928;-66
2022/01/26 20:55:57;;;;;;;;;;;6.20;99.90;;;;;;5070024;28;20323;-71
2022/01/26 20:58:22;;;;;;;;;;;6.20;99.90;;;;;;5049543;28;20002;-66
2022/01/26 21:00:48;;;;;;;;;;;6.20;99.90;;;;;;5081592;28;19928;-66
2022/01/26 21:03:15;;;;;;;;;;;6.20;99.90;;;;;;5082730;28;20456;-66
2022/01/26 21:05:41;;;;;;;;;;;6.20;99.90;;;;;;5068222;28;19928;-65
2022/01/26 21:08:07;;;;;;;;;;;6.30;99.90;;;;;;5087244;28;19928;-66
2022/01/26 21:10:32;;;;;;;;;;;6.20;99.90;;;;;;5068037;28;19929;-66
2022/01/26 21:12:58;;;;;;;;;;;6.20;99.90;;;;;;5068716;28;19975;-70
2022/01/26 21:15:24;;;;;;;;;;;6.30;99.90;;;;;;5067419;28;20051;-65
2022/01/26 21:17:50;;;;;;;;;;;6.30;99.90;;;;;;5069642;28;20023;-66
2022/01/26 21:20:17;;;;;;;;;;;6.30;99.90;;;;;;5061397;28;20012;-64
2022/01/26 21:22:43;;;;;;;;;;;6.30;99.90;;;;;;5061877;28;19958;-66
2022/01/26 21:25:09;;;;;;;;;;;6.30;99.90;;;;;;5096270;28;19954;-67
2022/01/26 21:27:34;;;;;;;;;;;6.30;99.90;;;;;;5048009;28;19928;-65